createdAt,value
2019-05-30T00:00:36.038Z,0.00
2019-05-30T00:01:36.022Z,0.00
2019-05-30T00:02:36.923Z,0.00
2019-05-30T00:03:36.061Z,0.00
2019-05-30T00:04:35.990Z,0.00
2019-05-30T00:05:35.996Z,0.00
2019-05-30T00:06:35.973Z,0.00
2019-05-30T00:07:36.038Z,0.00
2019-05-30T00:08:35.948Z,0.00
2019-05-30T00:09:35.944Z,0.00
2019-05-30T00:10:35.908Z,0.00
2019-05-30T00:11:35.910Z,0.00
2019-05-30T00:12:35.925Z,0.00
2019-05-30T00:13:35.946Z,0.00
2019-05-30T00:14:35.920Z,0.00
2019-05-30T00:15:35.868Z,0.00
2019-05-30T00:16:35.842Z,0.00
2019-05-30T00:17:36.526Z,0.00
2019-05-30T00:18:35.868Z,0.00
2019-05-30T00:19:35.820Z,0.00
2019-05-30T00:20:35.809Z,0.00
2019-05-30T00:21:35.793Z,0.00
2019-05-30T00:22:35.824Z,0.00
2019-05-30T00:23:35.784Z,0.00
2019-05-30T00:24:35.761Z,0.00
2019-05-30T00:25:35.741Z,0.00
2019-05-30T00:26:35.740Z,0.00
2019-05-30T00:27:35.764Z,0.00
2019-05-30T00:28:35.714Z,0.00
2019-05-30T00:29:35.707Z,0.00
2019-05-30T00:30:35.721Z,0.00
2019-05-30T00:31:35.673Z,0.00
2019-05-30T00:32:35.737Z,0.00
2019-05-30T00:33:35.654Z,0.00
2019-05-30T00:34:35.645Z,0.00
2019-05-30T00:35:35.644Z,0.00
2019-05-30T00:36:35.639Z,0.00
2019-05-30T00:37:35.658Z,0.00
2019-05-30T00:38:35.656Z,0.00
2019-05-30T00:39:35.599Z,0.00
2019-05-30T00:40:35.583Z,0.00
2019-05-30T00:41:35.611Z,0.00
2019-05-30T00:42:35.628Z,0.00
2019-05-30T00:43:35.545Z,0.00
2019-05-30T00:44:35.542Z,0.00
2019-05-30T00:45:35.538Z,0.00
2019-05-30T00:46:35.547Z,0.00
2019-05-30T00:47:35.537Z,0.00
2019-05-30T00:48:35.487Z,0.00
2019-05-30T00:49:35.478Z,0.00
2019-05-30T00:50:35.488Z,0.00
2019-05-30T00:51:35.461Z,0.00
2019-05-30T00:52:35.494Z,0.00
2019-05-30T00:53:35.493Z,0.00
2019-05-30T00:54:35.430Z,0.00
2019-05-30T00:55:35.407Z,0.00
2019-05-30T00:56:35.406Z,0.00
2019-05-30T00:57:35.428Z,0.00
2019-05-30T00:58:35.398Z,0.00
2019-05-30T00:59:35.362Z,0.00
2019-05-30T01:00:43.602Z,0.00
2019-05-30T01:01:36.345Z,0.00
2019-05-30T01:02:35.484Z,0.00
2019-05-30T01:03:35.321Z,0.00
2019-05-30T01:04:35.317Z,0.00
2019-05-30T01:05:35.322Z,0.00
2019-05-30T01:06:35.454Z,0.00
2019-05-30T01:07:35.310Z,0.00
2019-05-30T01:08:35.277Z,0.00
2019-05-30T01:09:35.282Z,0.00
2019-05-30T01:10:35.257Z,0.00
2019-05-30T01:11:35.248Z,0.00
2019-05-30T01:12:35.265Z,0.00
2019-05-30T01:13:35.215Z,0.00
2019-05-30T01:14:35.193Z,0.00
2019-05-30T01:15:35.236Z,0.00
2019-05-30T01:16:35.189Z,0.00
2019-05-30T01:17:35.191Z,0.00
2019-05-30T01:18:35.153Z,0.00
2019-05-30T01:19:35.148Z,0.00
2019-05-30T01:20:35.136Z,0.00
2019-05-30T01:21:35.121Z,0.00
2019-05-30T01:22:35.143Z,0.00
2019-05-30T01:23:35.101Z,0.00
2019-05-30T01:24:35.122Z,0.00
2019-05-30T01:25:35.100Z,0.00
2019-05-30T01:26:35.077Z,0.00
2019-05-30T01:27:35.107Z,0.00
2019-05-30T01:28:35.060Z,0.00
2019-05-30T01:29:35.057Z,0.00
2019-05-30T01:30:35.038Z,0.00
2019-05-30T01:31:35.009Z,0.00
2019-05-30T01:32:35.025Z,0.00
2019-05-30T01:33:35.003Z,0.00
2019-05-30T01:34:35.040Z,0.00
2019-05-30T01:35:34.964Z,0.00
2019-05-30T01:36:34.966Z,0.00
2019-05-30T01:37:35.012Z,0.00
2019-05-30T01:38:34.986Z,0.00
2019-05-30T01:39:34.917Z,0.00
2019-05-30T01:40:34.919Z,0.00
2019-05-30T01:41:34.900Z,0.00
2019-05-30T01:42:34.944Z,0.00
2019-05-30T01:43:34.883Z,0.00
2019-05-30T01:44:34.867Z,0.00
2019-05-30T01:45:34.870Z,0.00
2019-05-30T01:46:34.849Z,0.00
2019-05-30T01:47:35.496Z,0.00
2019-05-30T01:48:34.819Z,0.00
2019-05-30T01:49:34.807Z,0.00
2019-05-30T01:50:34.799Z,0.00
2019-05-30T01:51:34.787Z,0.00
2019-05-30T01:52:34.863Z,0.00
2019-05-30T01:53:34.777Z,0.00
2019-05-30T01:54:34.792Z,0.00
2019-05-30T01:55:34.759Z,0.00
2019-05-30T01:56:34.730Z,0.00
2019-05-30T01:57:34.852Z,0.00
2019-05-30T01:58:34.703Z,0.00
2019-05-30T01:59:34.691Z,0.00
2019-05-30T02:00:34.679Z,0.00
2019-05-30T02:01:34.670Z,0.00
2019-05-30T02:02:34.665Z,0.00
2019-05-30T02:03:34.730Z,0.00
2019-05-30T02:04:34.638Z,0.00
2019-05-30T02:05:34.639Z,0.00
2019-05-30T02:06:37.872Z,0.00
2019-05-30T02:07:34.611Z,0.00
2019-05-30T02:08:34.669Z,0.00
2019-05-30T02:09:34.657Z,0.00
2019-05-30T02:10:34.569Z,0.00
2019-05-30T02:11:34.560Z,0.00
2019-05-30T02:12:34.547Z,0.00
2019-05-30T02:13:34.610Z,0.00
2019-05-30T02:14:34.545Z,0.00
2019-05-30T02:15:34.544Z,0.00
2019-05-30T02:16:34.511Z,0.00
2019-05-30T02:17:34.560Z,0.00
2019-05-30T02:18:34.529Z,0.00
2019-05-30T02:19:34.480Z,0.00
2019-05-30T02:20:34.524Z,0.00
2019-05-30T02:21:34.451Z,0.00
2019-05-30T02:22:34.452Z,0.00
2019-05-30T02:23:34.468Z,0.00
2019-05-30T02:24:34.427Z,0.00
2019-05-30T02:25:34.419Z,0.00
2019-05-30T02:26:34.393Z,0.00
2019-05-30T02:27:34.473Z,0.00
2019-05-30T02:28:34.428Z,0.00
2019-05-30T02:29:34.380Z,0.00
2019-05-30T02:30:34.369Z,0.00
2019-05-30T02:31:38.953Z,0.00
2019-05-30T02:32:36.111Z,0.00
2019-05-30T02:33:34.358Z,0.00
2019-05-30T02:34:34.312Z,0.00
2019-05-30T02:35:34.303Z,0.00
2019-05-30T02:36:34.297Z,0.00
2019-05-30T02:37:34.272Z,0.00
2019-05-30T02:38:34.317Z,4.00
2019-05-30T02:39:34.300Z,4.00
2019-05-30T02:40:34.249Z,4.00
2019-05-30T02:41:34.250Z,0.00
2019-05-30T02:42:34.226Z,4.00
2019-05-30T02:43:34.348Z,4.00
2019-05-30T02:44:34.209Z,4.00
2019-05-30T02:45:34.233Z,8.00
2019-05-30T02:46:34.173Z,4.00
2019-05-30T02:47:34.270Z,8.00
2019-05-30T02:48:34.192Z,8.00
2019-05-30T02:49:34.156Z,8.00
2019-05-30T02:50:34.156Z,12.00
2019-05-30T02:51:34.185Z,12.00
2019-05-30T02:52:34.171Z,12.00
2019-05-30T02:53:35.078Z,12.00
2019-05-30T02:54:34.089Z,16.00
2019-05-30T02:55:34.078Z,20.00
2019-05-30T02:56:34.071Z,20.00
2019-05-30T02:57:34.076Z,20.00
2019-05-30T02:58:34.089Z,24.00
2019-05-30T02:59:34.075Z,28.00
2019-05-30T03:00:34.019Z,36.00
2019-05-30T03:01:34.025Z,36.00
2019-05-30T03:02:34.061Z,40.00
2019-05-30T03:03:34.151Z,44.00
2019-05-30T03:04:34.247Z,52.00
2019-05-30T03:05:33.980Z,56.00
2019-05-30T03:06:33.988Z,64.00
2019-05-30T03:07:33.957Z,64.00
2019-05-30T03:08:33.970Z,76.00
2019-05-30T03:09:33.978Z,84.00
2019-05-30T03:10:33.905Z,88.00
2019-05-30T03:11:33.994Z,96.00
2019-05-30T03:12:33.905Z,104.00
2019-05-30T03:13:33.931Z,116.00
2019-05-30T03:14:33.871Z,124.00
2019-05-30T03:15:33.949Z,136.00
2019-05-30T03:16:33.864Z,144.00
2019-05-30T03:17:33.863Z,152.00
2019-05-30T03:18:33.987Z,160.00
2019-05-30T03:19:33.810Z,172.00
2019-05-30T03:20:33.810Z,180.00
2019-05-30T03:21:33.834Z,192.00
2019-05-30T03:22:33.911Z,204.00
2019-05-30T03:23:33.796Z,216.00
2019-05-30T03:24:33.759Z,228.00
2019-05-30T03:25:34.603Z,240.00
2019-05-30T03:26:33.733Z,252.00
2019-05-30T03:27:33.745Z,264.00
2019-05-30T03:28:33.794Z,272.00
2019-05-30T03:29:33.705Z,280.00
2019-05-30T03:30:33.733Z,288.00
2019-05-30T03:31:33.678Z,292.00
2019-05-30T03:33:05.185Z,304.00
2019-05-30T03:33:40.493Z,312.00
2019-05-30T03:34:34.645Z,328.00
2019-05-30T03:35:41.731Z,344.00
2019-05-30T03:36:34.665Z,368.00
2019-05-30T03:37:33.654Z,392.00
2019-05-30T03:38:33.642Z,416.00
2019-05-30T03:39:33.659Z,436.00
2019-05-30T03:40:33.604Z,464.00
2019-05-30T03:41:33.572Z,488.00
2019-05-30T03:42:33.584Z,520.00
2019-05-30T03:43:33.580Z,560.00
2019-05-30T03:44:33.574Z,588.00
2019-05-30T03:45:33.534Z,616.00
2019-05-30T03:46:33.512Z,648.00
2019-05-30T03:47:33.514Z,684.00
2019-05-30T03:48:33.525Z,724.00
2019-05-30T03:49:33.489Z,748.00
2019-05-30T03:50:33.479Z,768.00
2019-05-30T03:51:33.459Z,792.00
2019-05-30T03:52:33.443Z,828.00
2019-05-30T03:53:33.470Z,864.00
2019-05-30T03:54:33.445Z,896.00
2019-05-30T03:55:33.419Z,916.00
2019-05-30T03:56:33.430Z,904.00
2019-05-30T03:57:33.405Z,880.00
2019-05-30T03:58:36.607Z,864.00
2019-05-30T03:59:33.393Z,868.00
2019-05-30T04:00:33.386Z,880.00
2019-05-30T04:01:33.368Z,896.00
2019-05-30T04:02:54.632Z,912.00
2019-05-30T04:03:34.421Z,924.00
2019-05-30T04:04:33.383Z,952.00
2019-05-30T04:05:33.304Z,988.00
2019-05-30T04:06:33.301Z,1048.00
2019-05-30T04:07:36.102Z,1120.00
2019-05-30T04:08:33.298Z,1208.00
2019-05-30T04:09:33.260Z,1304.00
2019-05-30T04:10:33.247Z,1408.00
2019-05-30T04:11:33.303Z,1528.00
2019-05-30T04:12:33.265Z,1652.00
2019-05-30T04:13:33.271Z,1784.00
2019-05-30T04:14:33.237Z,1928.00
2019-05-30T04:15:33.197Z,2072.00
2019-05-30T04:16:33.241Z,2192.00
2019-05-30T04:17:33.167Z,2292.00
2019-05-30T04:18:33.171Z,2396.00
2019-05-30T04:19:33.180Z,2496.00
2019-05-30T04:20:33.133Z,2596.00
2019-05-30T04:21:33.138Z,2680.00
2019-05-30T04:22:33.126Z,2740.00
2019-05-30T04:23:33.096Z,2792.00
2019-05-30T04:24:33.180Z,2856.00
2019-05-30T04:25:33.082Z,2924.00
2019-05-30T04:26:33.086Z,3004.00
2019-05-30T04:27:33.095Z,3092.00
2019-05-30T04:28:33.051Z,3192.00
2019-05-30T04:29:33.065Z,3292.00
2019-05-30T04:30:33.021Z,3380.00
2019-05-30T04:31:33.023Z,3476.00
2019-05-30T04:32:33.014Z,3580.00
2019-05-30T04:33:33.896Z,3668.00
2019-05-30T04:34:33.046Z,3768.00
2019-05-30T04:35:32.990Z,3880.00
2019-05-30T04:36:32.973Z,3956.00
2019-05-30T04:37:32.985Z,3960.00
2019-05-30T04:38:32.969Z,3984.00
2019-05-30T04:39:32.960Z,3960.00
2019-05-30T04:40:32.928Z,3884.00
2019-05-30T04:41:32.897Z,3728.00
2019-05-30T04:42:32.968Z,3532.00
2019-05-30T04:43:32.917Z,3460.00
2019-05-30T04:44:32.900Z,3480.00
2019-05-30T04:45:32.868Z,3472.00
2019-05-30T04:46:32.897Z,3468.00
2019-05-30T04:47:32.843Z,3520.00
2019-05-30T04:48:32.878Z,3696.00
2019-05-30T04:49:32.840Z,3904.00
2019-05-30T04:50:32.804Z,4044.00
2019-05-30T04:51:32.808Z,4052.00
2019-05-30T04:52:32.804Z,3948.00
2019-05-30T04:53:32.881Z,3832.00
2019-05-30T04:54:32.791Z,3764.00
2019-05-30T04:55:32.782Z,3752.00
2019-05-30T04:56:32.751Z,3792.00
2019-05-30T04:57:32.724Z,3868.00
2019-05-30T04:58:32.771Z,3972.00
2019-05-30T04:59:32.807Z,4064.00
2019-05-30T05:00:32.723Z,4064.00
2019-05-30T05:01:32.672Z,4004.00
2019-05-30T05:02:32.657Z,3912.00
2019-05-30T05:03:45.327Z,3824.00
2019-05-30T05:04:33.742Z,3832.00
2019-05-30T05:05:32.637Z,3860.00
2019-05-30T05:06:32.674Z,3916.00
2019-05-30T05:07:32.637Z,4016.00
2019-05-30T05:08:32.602Z,3976.00
2019-05-30T05:09:32.649Z,3876.00
2019-05-30T05:10:32.570Z,3844.00
2019-05-30T05:11:33.829Z,3888.00
2019-05-30T05:12:33.129Z,3932.00
2019-05-30T05:13:32.541Z,3864.00
2019-05-30T05:14:32.568Z,3748.00
2019-05-30T05:15:32.565Z,3804.00
2019-05-30T05:16:36.119Z,3952.00
2019-05-30T05:17:32.536Z,4136.00
2019-05-30T05:18:32.495Z,4272.00
2019-05-30T05:19:32.578Z,4188.00
2019-05-30T05:20:35.896Z,4064.00
2019-05-30T05:21:32.451Z,3748.00
2019-05-30T05:22:32.437Z,3376.00
2019-05-30T05:23:33.472Z,3080.00
2019-05-30T05:24:32.498Z,2972.00
2019-05-30T05:25:32.404Z,2916.00
2019-05-30T05:26:32.404Z,2960.00
2019-05-30T05:27:32.441Z,3080.00
2019-05-30T05:28:32.398Z,3192.00
2019-05-30T05:29:32.416Z,3288.00
2019-05-30T05:30:32.352Z,3312.00
2019-05-30T05:31:32.467Z,3308.00
2019-05-30T05:32:32.335Z,3252.00
2019-05-30T05:33:32.354Z,3260.00
2019-05-30T05:34:32.376Z,3304.00
2019-05-30T05:35:32.288Z,3372.00
2019-05-30T05:36:32.281Z,3528.00
2019-05-30T05:37:32.298Z,3616.00
2019-05-30T05:38:32.394Z,3732.00
2019-05-30T05:39:32.283Z,3896.00
2019-05-30T05:40:32.273Z,4044.00
2019-05-30T05:41:33.160Z,4148.00
2019-05-30T05:42:32.215Z,4432.00
2019-05-30T05:43:32.204Z,4640.00
2019-05-30T05:44:32.319Z,4644.00
2019-05-30T05:45:32.190Z,4580.00
2019-05-30T05:46:32.167Z,4476.00
2019-05-30T05:47:32.188Z,4276.00
2019-05-30T05:48:32.147Z,4140.00
2019-05-30T05:49:32.166Z,4344.00
2019-05-30T05:50:32.155Z,4500.00
2019-05-30T05:51:32.154Z,4424.00
2019-05-30T05:52:33.227Z,4316.00
2019-05-30T05:53:32.118Z,4324.00
2019-05-30T05:54:32.154Z,4424.00
2019-05-30T05:55:32.069Z,4484.00
2019-05-30T05:56:32.059Z,4480.00
2019-05-30T05:57:32.057Z,4344.00
2019-05-30T05:58:32.067Z,4428.00
2019-05-30T05:59:32.066Z,4544.00
2019-05-30T06:00:32.011Z,4656.00
2019-05-30T06:01:32.084Z,4816.00
2019-05-30T06:02:31.989Z,4992.00
2019-05-30T06:03:31.982Z,5340.00
2019-05-30T06:04:32.002Z,5732.00
2019-05-30T06:05:31.948Z,6316.00
2019-05-30T06:06:31.948Z,6700.00
2019-05-30T06:07:31.956Z,6928.00
2019-05-30T06:08:31.938Z,7076.00
2019-05-30T06:09:32.122Z,7348.00
2019-05-30T06:10:31.994Z,7708.00
2019-05-30T06:11:31.923Z,7768.00
2019-05-30T06:12:31.913Z,7516.00
2019-05-30T06:13:31.882Z,7432.00
2019-05-30T06:14:33.557Z,7604.00
2019-05-30T06:15:31.964Z,7628.00
2019-05-30T06:16:32.054Z,7412.00
2019-05-30T06:17:31.866Z,7292.00
2019-05-30T06:18:31.831Z,7200.00
2019-05-30T06:19:45.378Z,6788.00
2019-05-30T06:20:33.600Z,6056.00
2019-05-30T06:21:31.777Z,5524.00
2019-05-30T06:22:31.773Z,5220.00
2019-05-30T06:23:31.805Z,5236.00
2019-05-30T06:24:32.780Z,5364.00
2019-05-30T06:25:32.973Z,5776.00
2019-05-30T06:26:31.724Z,5796.00
2019-05-30T06:27:31.731Z,6488.00
2019-05-30T06:28:31.702Z,6416.00
2019-05-30T06:29:31.712Z,6756.00
2019-05-30T06:30:31.676Z,6556.00
2019-05-30T06:31:31.675Z,7420.00
2019-05-30T06:32:31.657Z,8016.00
2019-05-30T06:33:31.639Z,8124.00
2019-05-30T06:34:38.795Z,8176.00
2019-05-30T06:35:32.641Z,8472.00
2019-05-30T06:36:31.623Z,8424.00
2019-05-30T06:37:31.699Z,8656.00
2019-05-30T06:38:31.622Z,8484.00
2019-05-30T06:39:35.579Z,8932.00
2019-05-30T06:40:32.241Z,9580.00
2019-05-30T06:41:31.556Z,9156.00
2019-05-30T06:42:31.554Z,9012.00
2019-05-30T06:43:31.572Z,8920.00
2019-05-30T06:44:31.556Z,8756.00
2019-05-30T06:45:31.715Z,7960.00
2019-05-30T06:46:31.600Z,7320.00
2019-05-30T06:47:31.496Z,7156.00
2019-05-30T06:48:31.462Z,7080.00
2019-05-30T06:49:31.660Z,7160.00
2019-05-30T06:50:31.474Z,6920.00
2019-05-30T06:51:31.437Z,6948.00
2019-05-30T06:52:32.111Z,7656.00
2019-05-30T06:53:31.539Z,8980.00
2019-05-30T06:54:31.674Z,9288.00
2019-05-30T06:55:31.522Z,9296.00
2019-05-30T06:56:31.620Z,9152.00
2019-05-30T06:57:31.486Z,9752.00
2019-05-30T06:58:47.119Z,9780.00
2019-05-30T06:59:32.388Z,11212.00
2019-05-30T07:00:32.876Z,11076.00
2019-05-30T07:01:32.166Z,10396.00
2019-05-30T07:02:32.522Z,10252.00
2019-05-30T07:03:32.531Z,10724.00
2019-05-30T07:04:48.989Z,11008.00
2019-05-30T07:05:34.447Z,11564.00
2019-05-30T07:06:31.807Z,12376.00
2019-05-30T07:07:31.588Z,11528.00
2019-05-30T07:08:31.251Z,11928.00
2019-05-30T07:09:31.322Z,12532.00
2019-05-30T07:10:31.296Z,12772.00
2019-05-30T07:11:31.237Z,13148.00
2019-05-30T07:12:31.255Z,12956.00
2019-05-30T07:13:31.682Z,13620.00
2019-05-30T07:14:31.514Z,15464.00
2019-05-30T07:15:31.474Z,16724.00
2019-05-30T07:16:31.515Z,17728.00
2019-05-30T07:17:31.499Z,18528.00
2019-05-30T07:18:34.694Z,18592.00
2019-05-30T07:19:31.644Z,18880.00
2019-05-30T07:20:31.711Z,19392.00
2019-05-30T07:21:31.771Z,18144.00
2019-05-30T07:22:31.861Z,15812.00
2019-05-30T07:23:32.020Z,16224.00
2019-05-30T07:24:31.938Z,16180.00
2019-05-30T07:25:31.924Z,15968.00
2019-05-30T07:26:31.936Z,15672.00
2019-05-30T07:27:32.026Z,16120.00
2019-05-30T07:28:32.032Z,15716.00
2019-05-30T07:29:32.127Z,14984.00
2019-05-30T07:30:32.053Z,14024.00
2019-05-30T07:31:32.151Z,13520.00
2019-05-30T07:32:32.065Z,12352.00
2019-05-30T07:33:32.906Z,12484.00
2019-05-30T07:34:32.137Z,12292.00
2019-05-30T07:35:32.057Z,12556.00
2019-05-30T07:36:30.958Z,12976.00
2019-05-30T07:37:30.924Z,12168.00
2019-05-30T07:38:30.915Z,12036.00
2019-05-30T07:39:33.693Z,10888.00
2019-05-30T07:40:30.932Z,10480.00
2019-05-30T07:41:30.888Z,10524.00
2019-05-30T07:42:30.880Z,10648.00
2019-05-30T07:43:32.329Z,11020.00
2019-05-30T07:44:30.952Z,10192.00
2019-05-30T07:45:31.158Z,10124.00
2019-05-30T07:46:31.034Z,9548.00
2019-05-30T07:47:32.134Z,10520.00
2019-05-30T07:48:32.272Z,10640.00
2019-05-30T07:49:30.808Z,11644.00
2019-05-30T07:50:30.963Z,12584.00
2019-05-30T07:51:30.799Z,12976.00
2019-05-30T07:52:30.813Z,12504.00
2019-05-30T07:53:30.760Z,12768.00
2019-05-30T07:54:31.054Z,11860.00
2019-05-30T07:55:33.149Z,11148.00
2019-05-30T07:56:31.021Z,11204.00
2019-05-30T07:57:30.816Z,11352.00
2019-05-30T07:58:31.114Z,11396.00
2019-05-30T07:59:30.698Z,11980.00
2019-05-30T08:00:33.596Z,12252.00
2019-05-30T08:01:30.671Z,12312.00
2019-05-30T08:02:31.539Z,11048.00
2019-05-30T08:03:30.649Z,10100.00
2019-05-30T08:04:32.558Z,9336.00
2019-05-30T08:05:32.598Z,9444.00
2019-05-30T08:06:31.538Z,9856.00
2019-05-30T08:07:30.701Z,10056.00
2019-05-30T08:08:31.805Z,9784.00
2019-05-30T08:09:30.859Z,9880.00
2019-05-30T08:10:31.915Z,9408.00
2019-05-30T08:11:30.863Z,9656.00
2019-05-30T08:12:30.553Z,10444.00
2019-05-30T08:13:31.113Z,11356.00
2019-05-30T08:14:31.097Z,9720.00
2019-05-30T08:15:31.361Z,10096.00
2019-05-30T08:16:31.214Z,9828.00
2019-05-30T08:17:31.537Z,10440.00
2019-05-30T08:18:31.616Z,11768.00
2019-05-30T08:19:32.597Z,10636.00
2019-05-30T08:20:31.697Z,9304.00
2019-05-30T08:21:30.450Z,10024.00
2019-05-30T08:22:30.434Z,9096.00
2019-05-30T08:23:30.425Z,8608.00
2019-05-30T08:24:30.405Z,7772.00
2019-05-30T08:25:30.498Z,9340.00
2019-05-30T08:26:30.440Z,9272.00
2019-05-30T08:27:30.435Z,9672.00
2019-05-30T08:28:30.364Z,9812.00
2019-05-30T08:29:32.140Z,11044.00
2019-05-30T08:30:30.423Z,12260.00
2019-05-30T08:31:30.471Z,13004.00
2019-05-30T08:32:30.563Z,16700.00
2019-05-30T08:33:33.441Z,14500.00
2019-05-30T08:34:30.503Z,10620.00
2019-05-30T08:35:39.174Z,9128.00
2019-05-30T08:36:31.301Z,8476.00
2019-05-30T08:37:32.006Z,9164.00
2019-05-30T08:38:31.015Z,9616.00
2019-05-30T08:39:30.915Z,10768.00
2019-05-30T08:40:31.128Z,12160.00
2019-05-30T08:41:31.127Z,11360.00
2019-05-30T08:42:31.334Z,10176.00
2019-05-30T08:43:31.260Z,10592.00
2019-05-30T08:44:30.216Z,11624.00
2019-05-30T08:45:31.628Z,10308.00
2019-05-30T08:46:30.268Z,10700.00
2019-05-30T08:47:30.194Z,11404.00
2019-05-30T08:48:30.223Z,10076.00
2019-05-30T08:49:30.156Z,8964.00
2019-05-30T08:50:30.301Z,9572.00
2019-05-30T08:51:30.181Z,9700.00
2019-05-30T08:52:30.628Z,9220.00
2019-05-30T08:53:30.221Z,8844.00
2019-05-30T08:54:30.338Z,7848.00
2019-05-30T08:55:32.308Z,7116.00
2019-05-30T08:56:30.320Z,7360.00
2019-05-30T08:57:36.808Z,7696.00
2019-05-30T08:58:30.434Z,7824.00
2019-05-30T08:59:30.321Z,7796.00
2019-05-30T09:00:30.773Z,8268.00
2019-05-30T09:01:30.002Z,9112.00
2019-05-30T09:02:29.986Z,10004.00
2019-05-30T09:03:30.032Z,9084.00
2019-05-30T09:04:30.007Z,7472.00
2019-05-30T09:05:30.555Z,6820.00
2019-05-30T09:06:30.018Z,7416.00
2019-05-30T09:07:31.717Z,7984.00
2019-05-30T09:08:29.951Z,9384.00
2019-05-30T09:09:29.941Z,10756.00
2019-05-30T09:10:31.601Z,11172.00
2019-05-30T09:11:29.932Z,10932.00
2019-05-30T09:12:29.878Z,11488.00
2019-05-30T09:13:29.915Z,9996.00
2019-05-30T09:14:30.918Z,9540.00
2019-05-30T09:15:29.883Z,9244.00
2019-05-30T09:16:29.854Z,10200.00
2019-05-30T09:17:29.817Z,12060.00
2019-05-30T09:18:29.809Z,10840.00
2019-05-30T09:19:29.818Z,11152.00
2019-05-30T09:20:30.946Z,9620.00
2019-05-30T09:21:29.947Z,9984.00
2019-05-30T09:22:29.772Z,9752.00
2019-05-30T09:23:29.763Z,10104.00
2019-05-30T09:24:29.809Z,10948.00
2019-05-30T09:25:29.824Z,12212.00
2019-05-30T09:26:29.806Z,12216.00
2019-05-30T09:27:29.716Z,11324.00
2019-05-30T09:28:29.808Z,12320.00
2019-05-30T09:29:29.709Z,12820.00
2019-05-30T09:30:29.723Z,11280.00
2019-05-30T09:31:29.681Z,11308.00
2019-05-30T09:32:29.654Z,10416.00
2019-05-30T09:33:29.693Z,9844.00
2019-05-30T09:34:29.643Z,9528.00
2019-05-30T09:35:29.659Z,9808.00
2019-05-30T09:36:29.637Z,10752.00
2019-05-30T09:37:29.642Z,12380.00
2019-05-30T09:38:29.588Z,11892.00
2019-05-30T09:39:29.908Z,13988.00
2019-05-30T09:40:29.602Z,14648.00
2019-05-30T09:41:29.569Z,12256.00
2019-05-30T09:42:29.612Z,12308.00
2019-05-30T09:43:29.572Z,13508.00
2019-05-30T09:44:29.565Z,13196.00
2019-05-30T09:45:29.571Z,12836.00
2019-05-30T09:46:29.512Z,11672.00
2019-05-30T09:47:29.503Z,12404.00
2019-05-30T09:48:29.481Z,13048.00
2019-05-30T09:49:29.481Z,12216.00
2019-05-30T09:50:29.487Z,12924.00
2019-05-30T09:51:29.465Z,13496.00
2019-05-30T09:52:29.461Z,10568.00
2019-05-30T09:53:29.469Z,10412.00
2019-05-30T09:54:29.416Z,10240.00
2019-05-30T09:55:29.494Z,8772.00
2019-05-30T09:56:29.402Z,9064.00
2019-05-30T09:57:29.382Z,10356.00
2019-05-30T09:58:29.390Z,10280.00
2019-05-30T09:59:29.369Z,11756.00
2019-05-30T10:00:30.122Z,11232.00
2019-05-30T10:01:29.397Z,12796.00
2019-05-30T10:02:29.327Z,13576.00
2019-05-30T10:03:29.405Z,12028.00
2019-05-30T10:04:29.326Z,12740.00
2019-05-30T10:05:31.140Z,13340.00
2019-05-30T10:06:30.177Z,13064.00
2019-05-30T10:07:29.410Z,13752.00
2019-05-30T10:08:29.265Z,15044.00
2019-05-30T10:09:29.253Z,19648.00
2019-05-30T10:10:29.281Z,17760.00
2019-05-30T10:11:29.277Z,15596.00
2019-05-30T10:12:29.212Z,14992.00
2019-05-30T10:13:29.211Z,13048.00
2019-05-30T10:14:29.252Z,14476.00
2019-05-30T10:15:29.221Z,14876.00
2019-05-30T10:16:30.136Z,14280.00
2019-05-30T10:17:29.177Z,12596.00
2019-05-30T10:18:30.184Z,12576.00
2019-05-30T10:19:29.246Z,12696.00
2019-05-30T10:20:29.150Z,11032.00
2019-05-30T10:21:31.097Z,11212.00
2019-05-30T10:22:29.098Z,12468.00
2019-05-30T10:23:29.170Z,14388.00
2019-05-30T10:24:29.082Z,12732.00
2019-05-30T10:25:29.095Z,12344.00
2019-05-30T10:26:29.091Z,12588.00
2019-05-30T10:27:29.188Z,13056.00
2019-05-30T10:28:29.088Z,12960.00
2019-05-30T10:29:29.121Z,12220.00
2019-05-30T10:30:29.075Z,12088.00
2019-05-30T10:31:29.069Z,10844.00
2019-05-30T10:32:29.015Z,10644.00
2019-05-30T10:33:28.991Z,9960.00
2019-05-30T10:34:29.008Z,8792.00
2019-05-30T10:35:30.013Z,8692.00
2019-05-30T10:36:43.163Z,10300.00
2019-05-30T10:37:29.970Z,11652.00
2019-05-30T10:38:28.936Z,12212.00
2019-05-30T10:39:28.961Z,12052.00
2019-05-30T10:40:32.122Z,12128.00
2019-05-30T10:41:28.912Z,11452.00
2019-05-30T10:42:28.875Z,11360.00
2019-05-30T10:43:28.868Z,12392.00
2019-05-30T10:44:28.993Z,12192.00
2019-05-30T10:45:29.135Z,11388.00
2019-05-30T10:46:28.865Z,12512.00
2019-05-30T10:47:28.845Z,11952.00
2019-05-30T10:48:28.852Z,11248.00
2019-05-30T10:49:34.558Z,11568.00
2019-05-30T10:50:29.811Z,11404.00
2019-05-30T10:51:30.591Z,12616.00
2019-05-30T10:52:28.755Z,13396.00
2019-05-30T10:53:28.837Z,13576.00
2019-05-30T10:54:28.737Z,15428.00
2019-05-30T10:55:28.888Z,14672.00
2019-05-30T10:56:29.580Z,13884.00
2019-05-30T10:57:28.708Z,13496.00
2019-05-30T10:58:32.694Z,12544.00
2019-05-30T10:59:28.705Z,11536.00
2019-05-30T11:00:28.755Z,10908.00
2019-05-30T11:01:28.707Z,10492.00
2019-05-30T11:02:28.647Z,9800.00
2019-05-30T11:03:28.632Z,10228.00
2019-05-30T11:04:28.633Z,10008.00
2019-05-30T11:05:28.646Z,9832.00
2019-05-30T11:06:28.644Z,9344.00
2019-05-30T11:07:28.660Z,9004.00
2019-05-30T11:08:28.684Z,9984.00
2019-05-30T11:09:28.599Z,10716.00
2019-05-30T11:10:28.609Z,11052.00
2019-05-30T11:11:28.711Z,9496.00
2019-05-30T11:12:28.529Z,8848.00
2019-05-30T11:13:28.663Z,8572.00
2019-05-30T11:14:28.611Z,9100.00
2019-05-30T11:15:28.504Z,9144.00
2019-05-30T11:16:28.577Z,8624.00
2019-05-30T11:17:28.499Z,7968.00
2019-05-30T11:18:28.504Z,7844.00
2019-05-30T11:19:28.553Z,7776.00
2019-05-30T11:20:28.443Z,7940.00
2019-05-30T11:21:28.470Z,8552.00
2019-05-30T11:22:28.566Z,9148.00
2019-05-30T11:23:28.548Z,9936.00
2019-05-30T11:24:28.415Z,9224.00
2019-05-30T11:25:28.413Z,8596.00
2019-05-30T11:26:29.099Z,9076.00
2019-05-30T11:27:28.370Z,9864.00
2019-05-30T11:28:28.364Z,9980.00
2019-05-30T11:29:28.354Z,9684.00
2019-05-30T11:30:28.327Z,9564.00
2019-05-30T11:31:32.688Z,10092.00
2019-05-30T11:32:28.344Z,10328.00
2019-05-30T11:33:28.346Z,10416.00
2019-05-30T11:34:28.297Z,10696.00
2019-05-30T11:35:31.170Z,10496.00
2019-05-30T11:36:28.313Z,10060.00
2019-05-30T11:37:28.296Z,9708.00
2019-05-30T11:38:30.157Z,8492.00
2019-05-30T11:39:28.227Z,9012.00
2019-05-30T11:40:28.224Z,9444.00
2019-05-30T11:41:28.247Z,9972.00
2019-05-30T11:42:28.206Z,10728.00
2019-05-30T11:43:28.183Z,10428.00
2019-05-30T11:44:28.208Z,9896.00
2019-05-30T11:45:28.237Z,8764.00
2019-05-30T11:46:29.676Z,9224.00
2019-05-30T11:47:28.232Z,10148.00
2019-05-30T11:48:28.320Z,10384.00
2019-05-30T11:49:28.115Z,11080.00
2019-05-30T11:50:28.136Z,10444.00
2019-05-30T11:51:29.115Z,10184.00
2019-05-30T11:52:28.094Z,10836.00
2019-05-30T11:53:28.076Z,10392.00
2019-05-30T11:54:28.130Z,10628.00
2019-05-30T11:55:29.026Z,9788.00
2019-05-30T11:56:30.753Z,8724.00
2019-05-30T11:57:28.019Z,10768.00
2019-05-30T11:58:28.197Z,10884.00
2019-05-30T11:59:28.041Z,9444.00
2019-05-30T12:00:28.005Z,8724.00
2019-05-30T12:01:28.014Z,8656.00
2019-05-30T12:02:27.969Z,10264.00
2019-05-30T12:03:29.593Z,10240.00
2019-05-30T12:04:27.955Z,9800.00
2019-05-30T12:05:27.933Z,10788.00
2019-05-30T12:06:27.963Z,10632.00
2019-05-30T12:07:36.353Z,10468.00
2019-05-30T12:08:28.900Z,10284.00
2019-05-30T12:09:27.907Z,11504.00
2019-05-30T12:10:27.875Z,11060.00
2019-05-30T12:11:28.677Z,11032.00
2019-05-30T12:12:27.866Z,11816.00
2019-05-30T12:13:28.709Z,12992.00
2019-05-30T12:14:27.879Z,16068.00
2019-05-30T12:15:27.816Z,17404.00
2019-05-30T12:16:27.866Z,16404.00
2019-05-30T12:17:27.804Z,15432.00